sensor_id;sensor_type;location;lat;lon;timestamp;P1;durP1;ratioP1;P2;durP2;ratioP2
49614;SDS011;35517;45.272;9.984;2022-09-09T00:01:54;23.73;;;15.60;;
49614;SDS011;35517;45.272;9.984;2022-09-09T00:04:26;24.17;;;17.10;;
49614;SDS011;35517;45.272;9.984;2022-09-09T00:07:00;18.75;;;16.17;;
49614;SDS011;35517;45.272;9.984;2022-09-09T00:09:31;25.38;;;18.55;;
49614;SDS011;35517;45.272;9.984;2022-09-09T00:12:14;21.58;;;16.60;;
49614;SDS011;35517;45.272;9.984;2022-09-09T00:14:51;20.38;;;17.45;;
49614;SDS011;35517;45.272;9.984;2022-09-09T00:19:48;22.10;;;17.10;;
49614;SDS011;35517;45.272;9.984;2022-09-09T00:24:53;23.05;;;17.73;;
49614;SDS011;35517;45.272;9.984;2022-09-09T00:27:30;23.65;;;17.60;;
49614;SDS011;35517;45.272;9.984;2022-09-09T00:32:46;27.65;;;17.17;;
49614;SDS011;35517;45.272;9.984;2022-09-09T00:35:24;22.45;;;18.08;;
49614;SDS011;35517;45.272;9.984;2022-09-09T00:37:52;26.92;;;18.67;;
49614;SDS011;35517;45.272;9.984;2022-09-09T00:42:51;23.58;;;18.85;;
49614;SDS011;35517;45.272;9.984;2022-09-09T00:45:42;29.23;;;19.45;;
49614;SDS011;35517;45.272;9.984;2022-09-09T00:48:18;29.35;;;18.80;;
49614;SDS011;35517;45.272;9.984;2022-09-09T00:50:51;26.73;;;20.05;;
49614;SDS011;35517;45.272;9.984;2022-09-09T00:58:20;24.90;;;20.63;;
49614;SDS011;35517;45.272;9.984;2022-09-09T01:00:49;28.42;;;19.70;;
49614;SDS011;35517;45.272;9.984;2022-09-09T01:06:11;26.52;;;19.52;;
49614;SDS011;35517;45.272;9.984;2022-09-09T01:11:21;25.50;;;20.17;;
49614;SDS011;35517;45.272;9.984;2022-09-09T01:13:49;22.00;;;19.58;;
49614;SDS011;35517;45.272;9.984;2022-09-09T01:16:19;26.85;;;20.58;;
49614;SDS011;35517;45.272;9.984;2022-09-09T01:18:47;28.75;;;20.75;;
49614;SDS011;35517;45.272;9.984;2022-09-09T01:27:13;30.52;;;20.90;;
49614;SDS011;35517;45.272;9.984;2022-09-09T01:29:40;29.83;;;22.00;;
49614;SDS011;35517;45.272;9.984;2022-09-09T01:34:53;30.15;;;20.90;;
49614;SDS011;35517;45.272;9.984;2022-09-09T01:37:20;27.05;;;19.77;;
49614;SDS011;35517;45.272;9.984;2022-09-09T01:39:47;28.08;;;22.00;;
49614;SDS011;35517;45.272;9.984;2022-09-09T01:42:16;29.20;;;21.40;;
49614;SDS011;35517;45.272;9.984;2022-09-09T01:44:43;30.60;;;21.92;;
49614;SDS011;35517;45.272;9.984;2022-09-09T01:47:10;32.83;;;21.05;;
49614;SDS011;35517;45.272;9.984;2022-09-09T01:49:52;26.92;;;20.33;;
49614;SDS011;35517;45.272;9.984;2022-09-09T01:52:23;33.88;;;20.38;;
49614;SDS011;35517;45.272;9.984;2022-09-09T01:54:50;28.15;;;20.83;;
49614;SDS011;35517;45.272;9.984;2022-09-09T01:57:23;28.75;;;21.38;;
49614;SDS011;35517;45.272;9.984;2022-09-09T01:59:55;31.00;;;22.77;;
49614;SDS011;35517;45.272;9.984;2022-09-09T02:02:36;29.25;;;21.23;;
49614;SDS011;35517;45.272;9.984;2022-09-09T02:07:48;27.83;;;22.05;;
49614;SDS011;35517;45.272;9.984;2022-09-09T02:10:34;27.98;;;20.65;;
49614;SDS011;35517;45.272;9.984;2022-09-09T02:13:13;30.50;;;20.52;;
49614;SDS011;35517;45.272;9.984;2022-09-09T02:16:15;30.42;;;19.73;;
49614;SDS011;35517;45.272;9.984;2022-09-09T02:21:27;23.23;;;20.08;;
49614;SDS011;35517;45.272;9.984;2022-09-09T02:23:55;27.23;;;19.73;;
49614;SDS011;35517;45.272;9.984;2022-09-09T02:26:23;28.85;;;19.80;;
49614;SDS011;35517;45.272;9.984;2022-09-09T02:28:57;26.05;;;19.08;;
49614;SDS011;35517;45.272;9.984;2022-09-09T02:31:25;25.05;;;19.48;;
49614;SDS011;35517;45.272;9.984;2022-09-09T02:36:25;24.60;;;18.85;;
49614;SDS011;35517;45.272;9.984;2022-09-09T02:38:53;24.27;;;19.75;;
49614;SDS011;35517;45.272;9.984;2022-09-09T02:41:26;22.75;;;18.50;;
49614;SDS011;35517;45.272;9.984;2022-09-09T02:43:54;31.50;;;21.35;;
49614;SDS011;35517;45.272;9.984;2022-09-09T02:49:00;33.47;;;20.95;;
49614;SDS011;35517;45.272;9.984;2022-09-09T02:51:39;24.88;;;20.20;;
49614;SDS011;35517;45.272;9.984;2022-09-09T02:56:36;28.10;;;20.70;;
49614;SDS011;35517;45.272;9.984;2022-09-09T02:59:06;29.20;;;19.60;;
49614;SDS011;35517;45.272;9.984;2022-09-09T03:01:34;26.10;;;20.83;;
49614;SDS011;35517;45.272;9.984;2022-09-09T03:04:02;32.45;;;19.48;;
49614;SDS011;35517;45.272;9.984;2022-09-09T03:06:30;30.15;;;21.67;;
49614;SDS011;35517;45.272;9.984;2022-09-09T03:09:05;32.15;;;21.35;;
49614;SDS011;35517;45.272;9.984;2022-09-09T03:11:33;35.45;;;21.52;;
49614;SDS011;35517;45.272;9.984;2022-09-09T03:14:01;39.83;;;21.67;;
49614;SDS011;35517;45.272;9.984;2022-09-09T03:16:30;24.27;;;20.02;;
49614;SDS011;35517;45.272;9.984;2022-09-09T03:18:58;26.15;;;19.75;;
49614;SDS011;35517;45.272;9.984;2022-09-09T03:21:25;27.05;;;19.10;;
49614;SDS011;35517;45.272;9.984;2022-09-09T03:23:53;29.08;;;18.58;;
49614;SDS011;35517;45.272;9.984;2022-09-09T03:26:20;27.88;;;18.67;;
49614;SDS011;35517;45.272;9.984;2022-09-09T03:28:47;34.33;;;20.98;;
49614;SDS011;35517;45.272;9.984;2022-09-09T03:31:17;28.10;;;19.52;;
49614;SDS011;35517;45.272;9.984;2022-09-09T03:33:45;31.98;;;19.60;;
49614;SDS011;35517;45.272;9.984;2022-09-09T03:36:14;27.58;;;18.45;;
49614;SDS011;35517;45.272;9.984;2022-09-09T03:38:41;27.67;;;18.58;;
49614;SDS011;35517;45.272;9.984;2022-09-09T03:41:07;27.73;;;18.35;;
49614;SDS011;35517;45.272;9.984;2022-09-09T03:43:34;22.85;;;18.15;;
49614;SDS011;35517;45.272;9.984;2022-09-09T03:46:01;25.27;;;17.63;;
49614;SDS011;35517;45.272;9.984;2022-09-09T03:48:29;26.10;;;19.73;;
49614;SDS011;35517;45.272;9.984;2022-09-09T03:50:56;25.95;;;19.27;;
49614;SDS011;35517;45.272;9.984;2022-09-09T03:53:26;30.70;;;19.17;;
49614;SDS011;35517;45.272;9.984;2022-09-09T03:55:54;27.42;;;17.08;;
49614;SDS011;35517;45.272;9.984;2022-09-09T03:58:23;28.80;;;18.08;;
49614;SDS011;35517;45.272;9.984;2022-09-09T04:00:55;27.00;;;20.08;;
49614;SDS011;35517;45.272;9.984;2022-09-09T04:03:23;23.90;;;20.27;;
49614;SDS011;35517;45.272;9.984;2022-09-09T04:05:51;26.17;;;20.30;;
49614;SDS011;35517;45.272;9.984;2022-09-09T04:08:18;32.47;;;19.88;;
49614;SDS011;35517;45.272;9.984;2022-09-09T04:10:46;32.55;;;20.27;;
49614;SDS011;35517;45.272;9.984;2022-09-09T04:13:13;26.08;;;20.35;;
49614;SDS011;35517;45.272;9.984;2022-09-09T04:15:41;28.17;;;21.45;;
49614;SDS011;35517;45.272;9.984;2022-09-09T04:18:08;27.48;;;20.95;;
49614;SDS011;35517;45.272;9.984;2022-09-09T04:20:37;30.27;;;22.08;;
49614;SDS011;35517;45.272;9.984;2022-09-09T04:23:04;30.00;;;21.08;;
49614;SDS011;35517;45.272;9.984;2022-09-09T04:25:31;30.27;;;21.30;;
49614;SDS011;35517;45.272;9.984;2022-09-09T04:27:59;32.58;;;20.98;;
49614;SDS011;35517;45.272;9.984;2022-09-09T04:30:26;40.63;;;21.85;;
49614;SDS011;35517;45.272;9.984;2022-09-09T04:32:53;31.08;;;21.00;;
49614;SDS011;35517;45.272;9.984;2022-09-09T04:35:19;30.20;;;19.40;;
49614;SDS011;35517;45.272;9.984;2022-09-09T04:37:46;32.30;;;21.80;;
49614;SDS011;35517;45.272;9.984;2022-09-09T04:40:14;33.40;;;22.42;;
49614;SDS011;35517;45.272;9.984;2022-09-09T04:42:41;30.20;;;22.15;;
49614;SDS011;35517;45.272;9.984;2022-09-09T04:45:11;36.13;;;22.05;;
49614;SDS011;35517;45.272;9.984;2022-09-09T04:47:39;30.02;;;19.92;;
49614;SDS011;35517;45.272;9.984;2022-09-09T04:50:08;38.30;;;22.05;;
49614;SDS011;35517;45.272;9.984;2022-09-09T04:52:35;40.72;;;23.58;;
49614;SDS011;35517;45.272;9.984;2022-09-09T04:55:02;37.33;;;22.08;;
49614;SDS011;35517;45.272;9.984;2022-09-09T04:57:28;36.38;;;22.25;;
49614;SDS011;35517;45.272;9.984;2022-09-09T04:59:58;31.70;;;22.00;;
49614;SDS011;35517;45.272;9.984;2022-09-09T05:02:30;32.28;;;20.80;;
49614;SDS011;35517;45.272;9.984;2022-09-09T05:04:58;37.03;;;20.83;;
49614;SDS011;35517;45.272;9.984;2022-09-09T05:07:26;34.50;;;22.75;;
49614;SDS011;35517;45.272;9.984;2022-09-09T05:09:54;31.35;;;20.75;;
49614;SDS011;35517;45.272;9.984;2022-09-09T05:12:21;27.17;;;21.17;;
49614;SDS011;35517;45.272;9.984;2022-09-09T05:14:51;28.77;;;19.58;;
49614;SDS011;35517;45.272;9.984;2022-09-09T05:17:17;33.75;;;21.17;;
49614;SDS011;35517;45.272;9.984;2022-09-09T05:19:44;26.63;;;20.48;;
49614;SDS011;35517;45.272;9.984;2022-09-09T05:22:12;25.17;;;19.25;;
49614;SDS011;35517;45.272;9.984;2022-09-09T05:24:43;23.98;;;19.05;;
49614;SDS011;35517;45.272;9.984;2022-09-09T05:27:11;27.17;;;19.27;;
49614;SDS011;35517;45.272;9.984;2022-09-09T05:29:38;30.65;;;18.80;;
49614;SDS011;35517;45.272;9.984;2022-09-09T05:32:08;31.65;;;18.35;;
49614;SDS011;35517;45.272;9.984;2022-09-09T05:34:35;24.95;;;17.77;;
49614;SDS011;35517;45.272;9.984;2022-09-09T05:37:04;24.23;;;17.27;;
49614;SDS011;35517;45.272;9.984;2022-09-09T05:39:31;25.90;;;18.13;;
49614;SDS011;35517;45.272;9.984;2022-09-09T05:41:58;24.08;;;17.77;;
49614;SDS011;35517;45.272;9.984;2022-09-09T05:44:25;24.73;;;18.50;;
49614;SDS011;35517;45.272;9.984;2022-09-09T05:46:53;24.08;;;16.58;;
49614;SDS011;35517;45.272;9.984;2022-09-09T05:49:21;27.15;;;17.35;;
49614;SDS011;35517;45.272;9.984;2022-09-09T05:51:48;24.50;;;16.13;;
49614;SDS011;35517;45.272;9.984;2022-09-09T05:54:17;29.75;;;16.65;;
49614;SDS011;35517;45.272;9.984;2022-09-09T05:56:49;27.80;;;16.00;;
49614;SDS011;35517;45.272;9.984;2022-09-09T05:59:18;23.52;;;15.13;;
49614;SDS011;35517;45.272;9.984;2022-09-09T06:01:45;30.33;;;15.30;;
49614;SDS011;35517;45.272;9.984;2022-09-09T06:04:21;23.48;;;12.85;;
49614;SDS011;35517;45.272;9.984;2022-09-09T06:06:49;17.67;;;12.35;;
49614;SDS011;35517;45.272;9.984;2022-09-09T06:09:18;18.95;;;13.45;;
49614;SDS011;35517;45.272;9.984;2022-09-09T06:11:45;19.50;;;12.60;;
49614;SDS011;35517;45.272;9.984;2022-09-09T06:14:13;16.58;;;13.00;;
49614;SDS011;35517;45.272;9.984;2022-09-09T06:16:43;18.10;;;11.98;;
49614;SDS011;35517;45.272;9.984;2022-09-09T06:19:18;14.90;;;12.15;;
49614;SDS011;35517;45.272;9.984;2022-09-09T06:21:45;19.70;;;11.43;;
49614;SDS011;35517;45.272;9.984;2022-09-09T06:24:13;15.25;;;12.10;;
49614;SDS011;35517;45.272;9.984;2022-09-09T06:26:43;23.13;;;13.68;;
49614;SDS011;35517;45.272;9.984;2022-09-09T06:29:14;13.10;;;11.23;;
49614;SDS011;35517;45.272;9.984;2022-09-09T06:31:41;15.90;;;12.27;;
49614;SDS011;35517;45.272;9.984;2022-09-09T06:34:34;17.98;;;13.68;;
49614;SDS011;35517;45.272;9.984;2022-09-09T06:37:02;15.88;;;13.27;;
49614;SDS011;35517;45.272;9.984;2022-09-09T06:39:36;13.20;;;10.90;;
49614;SDS011;35517;45.272;9.984;2022-09-09T06:42:02;17.15;;;12.25;;
49614;SDS011;35517;45.272;9.984;2022-09-09T06:44:52;16.00;;;11.27;;
49614;SDS011;35517;45.272;9.984;2022-09-09T06:47:34;20.80;;;11.45;;
49614;SDS011;35517;45.272;9.984;2022-09-09T06:50:02;19.38;;;10.95;;
49614;SDS011;35517;45.272;9.984;2022-09-09T06:52:32;12.70;;;10.10;;
49614;SDS011;35517;45.272;9.984;2022-09-09T06:55:00;14.60;;;11.25;;
49614;SDS011;35517;45.272;9.984;2022-09-09T06:57:27;15.90;;;10.60;;
49614;SDS011;35517;45.272;9.984;2022-09-09T06:59:53;18.50;;;10.27;;
49614;SDS011;35517;45.272;9.984;2022-09-09T07:02:20;16.73;;;9.50;;
49614;SDS011;35517;45.272;9.984;2022-09-09T07:04:47;19.83;;;10.23;;
49614;SDS011;35517;45.272;9.984;2022-09-09T07:07:16;12.80;;;8.63;;
49614;SDS011;35517;45.272;9.984;2022-09-09T07:09:43;15.77;;;9.80;;
49614;SDS011;35517;45.272;9.984;2022-09-09T07:12:11;16.65;;;9.82;;
49614;SDS011;35517;45.272;9.984;2022-09-09T07:14:44;20.77;;;8.60;;
49614;SDS011;35517;45.272;9.984;2022-09-09T07:17:12;15.35;;;9.68;;
49614;SDS011;35517;45.272;9.984;2022-09-09T07:19:39;14.75;;;8.75;;
49614;SDS011;35517;45.272;9.984;2022-09-09T07:22:06;11.60;;;9.13;;
49614;SDS011;35517;45.272;9.984;2022-09-09T07:24:33;14.75;;;9.02;;
49614;SDS011;35517;45.272;9.984;2022-09-09T07:27:00;13.23;;;8.60;;
49614;SDS011;35517;45.272;9.984;2022-09-09T07:29:28;17.73;;;9.55;;
49614;SDS011;35517;45.272;9.984;2022-09-09T07:31:55;19.10;;;8.73;;
49614;SDS011;35517;45.272;9.984;2022-09-09T07:34:28;17.63;;;8.85;;
49614;SDS011;35517;45.272;9.984;2022-09-09T07:36:55;18.58;;;8.38;;
49614;SDS011;35517;45.272;9.984;2022-09-09T07:39:23;14.57;;;7.65;;
49614;SDS011;35517;45.272;9.984;2022-09-09T07:41:52;12.43;;;7.95;;
49614;SDS011;35517;45.272;9.984;2022-09-09T07:44:22;13.07;;;9.18;;
49614;SDS011;35517;45.272;9.984;2022-09-09T07:46:59;14.05;;;8.32;;
49614;SDS011;35517;45.272;9.984;2022-09-09T07:49:32;15.00;;;8.10;;
49614;SDS011;35517;45.272;9.984;2022-09-09T07:52:02;14.50;;;8.18;;
49614;SDS011;35517;45.272;9.984;2022-09-09T07:54:29;15.18;;;7.95;;
49614;SDS011;35517;45.272;9.984;2022-09-09T07:56:57;15.90;;;8.10;;
49614;SDS011;35517;45.272;9.984;2022-09-09T07:59:26;16.67;;;7.75;;
49614;SDS011;35517;45.272;9.984;2022-09-09T08:01:55;13.23;;;8.10;;
49614;SDS011;35517;45.272;9.984;2022-09-09T08:04:26;16.85;;;8.30;;
49614;SDS011;35517;45.272;9.984;2022-09-09T08:06:55;7.35;;;2.28;;
49614;SDS011;35517;45.272;9.984;2022-09-09T08:09:24;8.88;;;1.73;;
49614;SDS011;35517;45.272;9.984;2022-09-09T08:11:54;4.65;;;1.15;;
49614;SDS011;35517;45.272;9.984;2022-09-09T08:14:23;5.78;;;2.15;;
49614;SDS011;35517;45.272;9.984;2022-09-09T08:16:50;10.93;;;1.67;;
49614;SDS011;35517;45.272;9.984;2022-09-09T08:19:21;4.30;;;1.00;;
49614;SDS011;35517;45.272;9.984;2022-09-09T08:21:50;4.65;;;0.70;;
49614;SDS011;35517;45.272;9.984;2022-09-09T08:24:17;1.65;;;0.65;;
49614;SDS011;35517;45.272;9.984;2022-09-09T08:26:51;7.68;;;1.40;;
49614;SDS011;35517;45.272;9.984;2022-09-09T08:29:22;3.55;;;0.80;;
49614;SDS011;35517;45.272;9.984;2022-09-09T08:31:51;2.38;;;0.40;;
49614;SDS011;35517;45.272;9.984;2022-09-09T08:34:20;5.47;;;0.88;;
49614;SDS011;35517;45.272;9.984;2022-09-09T08:36:48;7.03;;;0.65;;
49614;SDS011;35517;45.272;9.984;2022-09-09T08:39:17;6.97;;;0.50;;
49614;SDS011;35517;45.272;9.984;2022-09-09T08:51:51;4.72;;;0.90;;
49614;SDS011;35517;45.272;9.984;2022-09-09T08:54:21;8.65;;;0.88;;
49614;SDS011;35517;45.272;9.984;2022-09-09T08:56:48;5.93;;;0.70;;
49614;SDS011;35517;45.272;9.984;2022-09-09T08:59:16;5.97;;;1.02;;
49614;SDS011;35517;45.272;9.984;2022-09-09T09:01:54;3.80;;;0.93;;
49614;SDS011;35517;45.272;9.984;2022-09-09T09:12:10;2.47;;;0.45;;
49614;SDS011;35517;45.272;9.984;2022-09-09T09:14:39;3.38;;;0.90;;
49614;SDS011;35517;45.272;9.984;2022-09-09T09:17:18;5.93;;;0.73;;
49614;SDS011;35517;45.272;9.984;2022-09-09T09:19:47;5.50;;;0.80;;
49614;SDS011;35517;45.272;9.984;2022-09-09T09:24:55;2.85;;;0.50;;
49614;SDS011;35517;45.272;9.984;2022-09-09T09:27:31;4.22;;;0.90;;
49614;SDS011;35517;45.272;9.984;2022-09-09T09:29:59;2.70;;;1.10;;
49614;SDS011;35517;45.272;9.984;2022-09-09T09:32:28;12.38;;;2.05;;
49614;SDS011;35517;45.272;9.984;2022-09-09T09:34:57;10.00;;;1.60;;
49614;SDS011;35517;45.272;9.984;2022-09-09T09:37:30;12.05;;;2.30;;
49614;SDS011;35517;45.272;9.984;2022-09-09T09:40:11;1.42;;;0.43;;
49614;SDS011;35517;45.272;9.984;2022-09-09T09:42:47;3.60;;;0.77;;
49614;SDS011;35517;45.272;9.984;2022-09-09T09:45:35;3.90;;;0.50;;
49614;SDS011;35517;45.272;9.984;2022-09-09T09:48:11;2.05;;;0.80;;
49614;SDS011;35517;45.272;9.984;2022-09-09T09:50:49;2.03;;;0.80;;
49614;SDS011;35517;45.272;9.984;2022-09-09T09:53:22;4.43;;;0.60;;
49614;SDS011;35517;45.272;9.984;2022-09-09T09:56:01;2.55;;;0.85;;
49614;SDS011;35517;45.272;9.984;2022-09-09T09:58:32;5.00;;;0.63;;
49614;SDS011;35517;45.272;9.984;2022-09-09T10:01:00;2.13;;;0.70;;
49614;SDS011;35517;45.272;9.984;2022-09-09T10:03:30;5.72;;;1.33;;
49614;SDS011;35517;45.272;9.984;2022-09-09T10:05:58;2.97;;;0.80;;
49614;SDS011;35517;45.272;9.984;2022-09-09T10:08:26;3.05;;;1.00;;
49614;SDS011;35517;45.272;9.984;2022-09-09T10:13:37;3.55;;;0.80;;
49614;SDS011;35517;45.272;9.984;2022-09-09T10:16:22;1.20;;;0.63;;
49614;SDS011;35517;45.272;9.984;2022-09-09T10:21:52;2.95;;;0.88;;
49614;SDS011;35517;45.272;9.984;2022-09-09T10:27:03;1.45;;;1.20;;
49614;SDS011;35517;45.272;9.984;2022-09-09T10:37:08;3.37;;;0.80;;
49614;SDS011;35517;45.272;9.984;2022-09-09T10:39:40;1.98;;;0.80;;
49614;SDS011;35517;45.272;9.984;2022-09-09T10:42:08;1.90;;;0.90;;
49614;SDS011;35517;45.272;9.984;2022-09-09T10:44:40;2.55;;;1.15;;
49614;SDS011;35517;45.272;9.984;2022-09-09T10:55:02;2.05;;;0.93;;
49614;SDS011;35517;45.272;9.984;2022-09-09T10:57:34;2.00;;;1.02;;
49614;SDS011;35517;45.272;9.984;2022-09-09T11:00:05;2.03;;;1.02;;
49614;SDS011;35517;45.272;9.984;2022-09-09T11:02:33;3.63;;;1.00;;
49614;SDS011;35517;45.272;9.984;2022-09-09T11:07:40;2.85;;;1.13;;
49614;SDS011;35517;45.272;9.984;2022-09-09T11:12:59;6.30;;;1.20;;
49614;SDS011;35517;45.272;9.984;2022-09-09T11:15:39;4.45;;;1.83;;
49614;SDS011;35517;45.272;9.984;2022-09-09T11:18:11;5.57;;;1.73;;
49614;SDS011;35517;45.272;9.984;2022-09-09T11:20:47;3.40;;;1.20;;
49614;SDS011;35517;45.272;9.984;2022-09-09T11:23:42;2.70;;;1.48;;
49614;SDS011;35517;45.272;9.984;2022-09-09T11:26:30;3.50;;;2.05;;
49614;SDS011;35517;45.272;9.984;2022-09-09T11:29:24;3.72;;;1.17;;
49614;SDS011;35517;45.272;9.984;2022-09-09T11:42:20;3.95;;;1.65;;
49614;SDS011;35517;45.272;9.984;2022-09-09T11:44:47;10.10;;;1.80;;
49614;SDS011;35517;45.272;9.984;2022-09-09T11:50:41;2.42;;;1.70;;
49614;SDS011;35517;45.272;9.984;2022-09-09T11:52:44;3.78;;;2.08;;
49614;SDS011;35517;45.272;9.984;2022-09-09T11:58:26;1.98;;;1.70;;
49614;SDS011;35517;45.272;9.984;2022-09-09T12:00:47;3.03;;;2.17;;
49614;SDS011;35517;45.272;9.984;2022-09-09T12:05:59;8.65;;;2.55;;
49614;SDS011;35517;45.272;9.984;2022-09-09T12:08:27;9.93;;;1.90;;
49614;SDS011;35517;45.272;9.984;2022-09-09T12:10:56;3.40;;;1.63;;
49614;SDS011;35517;45.272;9.984;2022-09-09T12:13:23;8.20;;;2.50;;
49614;SDS011;35517;45.272;9.984;2022-09-09T12:15:55;6.18;;;1.70;;
49614;SDS011;35517;45.272;9.984;2022-09-09T12:18:34;3.03;;;1.40;;
49614;SDS011;35517;45.272;9.984;2022-09-09T12:21:04;4.47;;;1.65;;
49614;SDS011;35517;45.272;9.984;2022-09-09T12:34:29;4.95;;;2.20;;
49614;SDS011;35517;45.272;9.984;2022-09-09T12:36:59;4.70;;;1.90;;
49614;SDS011;35517;45.272;9.984;2022-09-09T12:39:38;3.63;;;1.70;;
49614;SDS011;35517;45.272;9.984;2022-09-09T12:42:20;6.47;;;1.92;;
49614;SDS011;35517;45.272;9.984;2022-09-09T12:44:58;3.67;;;1.63;;
49614;SDS011;35517;45.272;9.984;2022-09-09T12:47:26;2.92;;;1.30;;
49614;SDS011;35517;45.272;9.984;2022-09-09T12:49:55;3.53;;;1.17;;
49614;SDS011;35517;45.272;9.984;2022-09-09T12:54:49;2.60;;;1.23;;
49614;SDS011;35517;45.272;9.984;2022-09-09T12:57:19;4.90;;;1.45;;
49614;SDS011;35517;45.272;9.984;2022-09-09T12:59:46;5.07;;;1.20;;
49614;SDS011;35517;45.272;9.984;2022-09-09T13:02:20;4.55;;;0.85;;
49614;SDS011;35517;45.272;9.984;2022-09-09T13:04:47;7.90;;;1.05;;
49614;SDS011;35517;45.272;9.984;2022-09-09T13:07:16;11.27;;;1.70;;
49614;SDS011;35517;45.272;9.984;2022-09-09T13:09:43;5.78;;;1.75;;
49614;SDS011;35517;45.272;9.984;2022-09-09T13:12:15;8.90;;;4.03;;
49614;SDS011;35517;45.272;9.984;2022-09-09T13:14:43;5.40;;;1.67;;
49614;SDS011;35517;45.272;9.984;2022-09-09T13:17:21;4.75;;;1.50;;
49614;SDS011;35517;45.272;9.984;2022-09-09T13:19:49;5.93;;;1.48;;
49614;SDS011;35517;45.272;9.984;2022-09-09T13:22:36;3.22;;;1.05;;
49614;SDS011;35517;45.272;9.984;2022-09-09T13:27:41;3.58;;;0.82;;
49614;SDS011;35517;45.272;9.984;2022-09-09T13:33:00;3.10;;;1.52;;
49614;SDS011;35517;45.272;9.984;2022-09-09T13:35:27;3.28;;;1.10;;
49614;SDS011;35517;45.272;9.984;2022-09-09T13:37:54;3.45;;;2.20;;
49614;SDS011;35517;45.272;9.984;2022-09-09T13:40:21;9.20;;;1.63;;
49614;SDS011;35517;45.272;9.984;2022-09-09T13:42:51;5.30;;;1.70;;
49614;SDS011;35517;45.272;9.984;2022-09-09T13:45:19;1.45;;;0.60;;
49614;SDS011;35517;45.272;9.984;2022-09-09T13:47:46;9.50;;;1.20;;
49614;SDS011;35517;45.272;9.984;2022-09-09T13:50:28;5.00;;;1.73;;
49614;SDS011;35517;45.272;9.984;2022-09-09T13:52:56;3.35;;;1.60;;
49614;SDS011;35517;45.272;9.984;2022-09-09T13:55:29;4.60;;;1.63;;
49614;SDS011;35517;45.272;9.984;2022-09-09T13:58:00;3.53;;;1.00;;
49614;SDS011;35517;45.272;9.984;2022-09-09T14:00:30;2.15;;;1.10;;
49614;SDS011;35517;45.272;9.984;2022-09-09T14:02:58;3.42;;;1.00;;
49614;SDS011;35517;45.272;9.984;2022-09-09T14:05:27;5.72;;;1.30;;
49614;SDS011;35517;45.272;9.984;2022-09-09T14:07:54;1.83;;;0.95;;
49614;SDS011;35517;45.272;9.984;2022-09-09T14:10:21;7.25;;;1.48;;
49614;SDS011;35517;45.272;9.984;2022-09-09T14:12:47;11.82;;;2.10;;
49614;SDS011;35517;45.272;9.984;2022-09-09T14:15:14;5.60;;;1.83;;
49614;SDS011;35517;45.272;9.984;2022-09-09T14:17:41;4.00;;;0.70;;
49614;SDS011;35517;45.272;9.984;2022-09-09T14:20:09;4.38;;;0.80;;
49614;SDS011;35517;45.272;9.984;2022-09-09T14:22:37;3.97;;;1.20;;
49614;SDS011;35517;45.272;9.984;2022-09-09T14:25:04;4.80;;;1.60;;
49614;SDS011;35517;45.272;9.984;2022-09-09T14:27:31;7.25;;;1.35;;
49614;SDS011;35517;45.272;9.984;2022-09-09T14:29:58;8.88;;;2.03;;
49614;SDS011;35517;45.272;9.984;2022-09-09T14:32:26;3.40;;;1.08;;
49614;SDS011;35517;45.272;9.984;2022-09-09T14:34:53;5.85;;;1.38;;
49614;SDS011;35517;45.272;9.984;2022-09-09T14:37:19;4.18;;;1.30;;
49614;SDS011;35517;45.272;9.984;2022-09-09T14:39:46;5.75;;;1.52;;
49614;SDS011;35517;45.272;9.984;2022-09-09T14:42:16;5.97;;;1.45;;
49614;SDS011;35517;45.272;9.984;2022-09-09T14:44:42;8.63;;;1.13;;
49614;SDS011;35517;45.272;9.984;2022-09-09T14:47:09;6.68;;;1.73;;
49614;SDS011;35517;45.272;9.984;2022-09-09T14:49:35;7.18;;;1.13;;
49614;SDS011;35517;45.272;9.984;2022-09-09T14:52:03;12.02;;;2.00;;
49614;SDS011;35517;45.272;9.984;2022-09-09T14:54:31;8.18;;;1.60;;
49614;SDS011;35517;45.272;9.984;2022-09-09T14:56:58;6.75;;;1.73;;
49614;SDS011;35517;45.272;9.984;2022-09-09T14:59:24;5.00;;;1.60;;
49614;SDS011;35517;45.272;9.984;2022-09-09T15:01:52;11.55;;;2.33;;
49614;SDS011;35517;45.272;9.984;2022-09-09T15:04:18;9.27;;;1.95;;
49614;SDS011;35517;45.272;9.984;2022-09-09T15:06:45;14.88;;;1.73;;
49614;SDS011;35517;45.272;9.984;2022-09-09T15:09:14;7.75;;;1.10;;
49614;SDS011;35517;45.272;9.984;2022-09-09T15:11:41;4.28;;;1.65;;
49614;SDS011;35517;45.272;9.984;2022-09-09T15:14:08;1.98;;;1.13;;
49614;SDS011;35517;45.272;9.984;2022-09-09T15:16:35;7.00;;;2.00;;
49614;SDS011;35517;45.272;9.984;2022-09-09T15:19:02;6.90;;;1.88;;
49614;SDS011;35517;45.272;9.984;2022-09-09T15:21:33;3.80;;;1.60;;
49614;SDS011;35517;45.272;9.984;2022-09-09T15:24:00;9.65;;;1.63;;
49614;SDS011;35517;45.272;9.984;2022-09-09T15:26:27;5.00;;;1.10;;
49614;SDS011;35517;45.272;9.984;2022-09-09T15:28:54;5.80;;;1.30;;
49614;SDS011;35517;45.272;9.984;2022-09-09T15:31:25;5.03;;;1.30;;
49614;SDS011;35517;45.272;9.984;2022-09-09T15:36:27;4.88;;;1.15;;
49614;SDS011;35517;45.272;9.984;2022-09-09T15:38:54;4.07;;;1.25;;
49614;SDS011;35517;45.272;9.984;2022-09-09T15:41:21;7.25;;;1.48;;
49614;SDS011;35517;45.272;9.984;2022-09-09T15:43:49;3.90;;;1.38;;
49614;SDS011;35517;45.272;9.984;2022-09-09T15:46:35;4.32;;;1.27;;
49614;SDS011;35517;45.272;9.984;2022-09-09T15:49:09;5.68;;;1.13;;
49614;SDS011;35517;45.272;9.984;2022-09-09T15:51:37;1.60;;;1.10;;
49614;SDS011;35517;45.272;9.984;2022-09-09T15:54:05;5.53;;;1.63;;
49614;SDS011;35517;45.272;9.984;2022-09-09T15:56:31;4.05;;;0.90;;
49614;SDS011;35517;45.272;9.984;2022-09-09T15:58:58;3.72;;;1.15;;
49614;SDS011;35517;45.272;9.984;2022-09-09T16:01:26;3.72;;;1.08;;
49614;SDS011;35517;45.272;9.984;2022-09-09T16:03:53;6.53;;;1.10;;
49614;SDS011;35517;45.272;9.984;2022-09-09T16:06:20;3.53;;;1.27;;
49614;SDS011;35517;45.272;9.984;2022-09-09T16:08:51;6.95;;;1.50;;
49614;SDS011;35517;45.272;9.984;2022-09-09T16:11:20;3.35;;;1.00;;
49614;SDS011;35517;45.272;9.984;2022-09-09T16:13:47;6.18;;;1.35;;
49614;SDS011;35517;45.272;9.984;2022-09-09T16:16:14;12.77;;;1.33;;
49614;SDS011;35517;45.272;9.984;2022-09-09T16:18:47;14.18;;;1.77;;
49614;SDS011;35517;45.272;9.984;2022-09-09T16:21:15;11.75;;;1.60;;
49614;SDS011;35517;45.272;9.984;2022-09-09T16:23:42;5.38;;;1.45;;
49614;SDS011;35517;45.272;9.984;2022-09-09T16:26:13;6.28;;;1.75;;
49614;SDS011;35517;45.272;9.984;2022-09-09T16:28:40;10.77;;;1.95;;
49614;SDS011;35517;45.272;9.984;2022-09-09T16:31:08;6.72;;;1.58;;
49614;SDS011;35517;45.272;9.984;2022-09-09T16:33:39;6.60;;;1.35;;
49614;SDS011;35517;45.272;9.984;2022-09-09T16:36:11;10.10;;;1.95;;
49614;SDS011;35517;45.272;9.984;2022-09-09T16:38:38;3.58;;;1.48;;
49614;SDS011;35517;45.272;9.984;2022-09-09T16:41:05;4.80;;;1.35;;
49614;SDS011;35517;45.272;9.984;2022-09-09T16:43:33;8.05;;;1.75;;
49614;SDS011;35517;45.272;9.984;2022-09-09T16:46:00;11.70;;;1.17;;
49614;SDS011;35517;45.272;9.984;2022-09-09T16:48:31;4.07;;;1.35;;
49614;SDS011;35517;45.272;9.984;2022-09-09T16:51:05;8.60;;;1.50;;
49614;SDS011;35517;45.272;9.984;2022-09-09T16:53:32;4.03;;;1.88;;
49614;SDS011;35517;45.272;9.984;2022-09-09T16:56:06;5.80;;;1.73;;
49614;SDS011;35517;45.272;9.984;2022-09-09T16:58:34;6.63;;;1.60;;
49614;SDS011;35517;45.272;9.984;2022-09-09T17:01:01;9.10;;;1.27;;
49614;SDS011;35517;45.272;9.984;2022-09-09T17:03:29;8.75;;;2.05;;
49614;SDS011;35517;45.272;9.984;2022-09-09T17:05:56;12.30;;;1.80;;